Time;durP1;ratioP1;P1;durP2;ratioP2;P2;SDS_P1;SDS_P2;PMS_P1;PMS_P2;Temp;Humidity;BMP_temperature;BMP_pressure;BME280_temperature;BME280_humidity;BME280_pressure;Samples;Min_cycle;Max_cycle;Signal;HPM_P1;HPM_P2
2022/11/08 08:25:57;;;;;;;6.20;5.47;;;;;;;9.19;100.00;98704.66;5107826;28;20579;-80
2022/11/08 08:28:25;;;;;;;5.80;5.07;;;;;;;9.72;100.00;98704.91;5108460;28;39926;-73
2022/11/08 08:30:52;;;;;;;6.47;5.20;;;;;;;10.20;99.18;98705.47;5105529;28;41910;-82
2022/11/08 08:33:20;;;;;;;6.23;4.80;;;;;;;10.49;95.23;98690.41;5106552;28;42449;-84
2022/11/08 08:35:47;;;;;;;6.70;4.80;;;;;;;10.87;92.76;98706.44;5106133;28;42459;-80
2022/11/08 08:38:14;;;;;;;5.53;4.30;;;;;;;11.13;90.78;98708.16;5106361;28;39594;-74
2022/11/08 08:40:42;;;;;;;5.53;4.90;;;;;;;11.35;89.05;98698.78;5106577;28;40966;-81
2022/11/08 08:43:11;;;;;;;4.87;4.33;;;;;;;11.55;87.97;98700.06;5090186;28;41413;-74
2022/11/08 08:45:40;;;;;;;5.00;4.23;;;;;;;11.71;86.41;98698.91;5106558;28;42981;-80
2022/11/08 08:48:08;;;;;;;4.53;4.10;;;;;;;11.66;85.86;98663.88;5108712;28;39874;-81
2022/11/08 08:50:35;;;;;;;7.10;5.00;;;;;;;11.99;85.20;98686.38;5106838;28;42010;-76
2022/11/08 08:53:06;;;;;;;8.73;5.30;;;;;;;12.18;83.94;98682.28;5107389;28;42788;-75
2022/11/08 08:55:35;;;;;;;7.50;5.90;;;;;;;12.29;82.48;98673.56;5089406;28;42172;-76
2022/11/08 08:58:03;;;;;;;9.03;6.43;;;;;;;12.43;82.15;98686.69;5108308;28;39895;-78
2022/11/08 09:00:32;;;;;;;5.80;5.27;;;;;;;12.46;81.32;98686.47;5106393;28;41940;-81
2022/11/08 09:03:03;;;;;;;8.43;5.13;;;;;;;12.53;81.22;98692.16;5108724;28;42683;-78
2022/11/08 09:05:31;;;;;;;5.73;5.10;;;;;;;12.61;80.87;98699.59;5089574;28;42572;-80
2022/11/08 09:07:59;;;;;;;6.13;5.03;;;;;;;12.74;80.06;98703.03;5107511;28;39868;-77
2022/11/08 09:10:27;;;;;;;5.33;4.57;;;;;;;12.91;79.57;98697.31;5106203;28;42799;-77
2022/11/08 09:12:54;;;;;;;5.20;4.67;;;;;;;13.09;78.92;98698.59;5107021;28;43540;-79
2022/11/08 09:15:22;;;;;;;6.33;5.17;;;;;;;13.25;78.52;98699.16;5106498;28;43096;-78
2022/11/08 09:17:53;;;;;;;6.10;4.63;;;;;;;13.41;77.23;98704.16;5108258;28;40321;-74
2022/11/08 09:20:21;;;;;;;5.07;4.40;;;;;;;13.24;77.07;98656.72;5106012;28;42224;-79
2022/11/08 09:22:49;;;;;;;6.70;5.30;;;;;;;13.70;76.43;98707.25;5108304;28;42596;-77
2022/11/08 09:25:17;;;;;;;6.50;5.40;;;;;;;13.83;75.89;98704.50;5105645;28;41277;-79
2022/11/08 09:27:45;;;;;;;5.97;4.93;;;;;;;13.97;75.45;98705.06;5108528;28;40684;-76
2022/11/08 09:30:13;;;;;;;5.10;4.60;;;;;;;14.15;74.84;98701.94;5105900;28;41685;-74
2022/11/08 09:32:40;;;;;;;5.00;4.23;;;;;;;14.35;74.67;98710.03;5106430;28;41597;-77
2022/11/08 09:35:09;;;;;;;6.13;4.40;;;;;;;14.64;74.51;98694.38;5104939;28;41993;-78
2022/11/08 09:37:37;;;;;;;5.47;4.47;;;;;;;15.01;73.66;98708.19;5093088;28;38777;-76
2022/11/08 09:40:05;;;;;;;7.50;4.77;;;;;;;15.39;72.49;98707.66;5093741;28;41834;-76
2022/11/08 09:42:54;;;;;;;5.23;4.73;;;;;;;15.83;71.46;98689.69;5093402;28;43158;-80
2022/11/08 09:45:26;;;;;;;5.17;4.67;;;;;;;16.28;69.12;98689.31;5093571;28;42343;-73
2022/11/08 09:47:57;;;;;;;5.30;3.97;;;;;;;16.67;67.25;98701.00;5093637;28;39092;-79
2022/11/08 09:50:34;;;;;;;4.27;3.87;;;;;;;17.14;64.42;98715.41;5093512;28;41495;-80
2022/11/08 09:53:13;;;;;;;5.20;3.93;;;;;;;17.24;63.52;98721.59;5091489;28;42688;-78
2022/11/08 09:55:44;;;;;;;3.67;3.37;;;;;;;17.38;60.65;98728.34;5075770;28;41334;-78
2022/11/08 09:58:22;;;;;;;4.50;3.23;;;;;;;17.97;58.63;98730.81;5076441;28;40355;-75
2022/11/08 10:00:52;;;;;;;3.80;3.37;;;;;;;18.50;57.09;98716.78;5089808;28;42587;-77
2022/11/08 10:03:23;;;;;;;3.97;3.53;;;;;;;20.26;54.74;98736.53;5075342;28;41814;-77
2022/11/08 10:06:11;;;;;;;3.07;2.60;;;;;;;22.47;50.89;98748.28;5092069;28;41836;-77
2022/11/08 10:08:43;;;;;;;3.20;2.83;;;;;;;23.92;47.66;98718.69;5089707;28;39911;-76
2022/11/08 10:11:28;;;;;;;3.40;3.07;;;;;;;25.60;44.58;98758.38;5090311;28;41787;-77
2022/11/08 10:14:09;;;;;;;4.33;3.10;;;;;;;26.84;38.80;98790.25;5090144;28;43710;-81
2022/11/08 10:16:45;;;;;;;3.57;2.77;;;;;;;28.16;37.04;98809.72;5092066;28;42579;-84
2022/11/08 10:19:34;;;;;;;3.80;3.30;;;;;;;29.87;34.29;98813.00;5091744;28;40950;-76
2022/11/08 10:22:08;;;;;;;2.93;2.70;;;;;;;30.82;32.83;98827.34;5092298;28;41814;-79
2022/11/08 10:24:44;;;;;;;2.77;2.57;;;;;;;31.11;32.83;98817.59;5091537;28;43737;-82
2022/11/08 10:27:16;;;;;;;3.37;2.77;;;;;;;31.47;31.84;98812.06;5092064;28;42280;-77
2022/11/08 10:29:45;;;;;;;4.57;2.70;;;;;;;31.96;29.96;98826.53;5075396;28;39709;-77
2022/11/08 10:32:18;;;;;;;2.95;2.33;;;;;;;32.96;28.70;98816.41;5091714;28;41887;-79
2022/11/08 10:34:52;;;;;;;3.40;2.67;;;;;;;34.24;26.86;98823.34;5091658;28;41691;-78
2022/11/08 10:37:21;;;;;;;3.47;2.40;;;;;;;35.36;26.11;98825.03;5089832;28;43166;-81
2022/11/08 10:39:55;;;;;;;3.13;2.20;;;;;;;36.38;25.28;98827.78;5091795;28;40895;-81
2022/11/08 10:42:34;;;;;;;1.90;1.70;;;;;;;37.42;24.04;98829.00;5075392;28;41781;-78
2022/11/08 10:45:02;;;;;;;2.15;1.92;;;;;;;38.32;23.29;98809.03;5091394;28;41560;-80
2022/11/08 10:47:31;;;;;;;3.83;2.10;;;;;;;39.49;21.82;98822.63;5091897;28;42226;-78
2022/11/08 10:49:59;;;;;;;1.98;1.70;;;;;;;40.11;20.77;98823.94;5091197;28;39939;-79
2022/11/08 10:52:34;;;;;;;2.58;1.80;;;;;;;40.22;19.83;98826.31;5074961;28;40762;-82
2022/11/08 10:55:05;;;;;;;3.22;2.10;;;;;;;39.27;20.71;98820.22;5074258;28;42955;-77
2022/11/08 10:57:38;;;;;;;3.03;2.10;;;;;;;38.73;22.44;98811.75;5091787;28;43251;-75
2022/11/08 11:00:23;;;;;;;2.67;2.10;;;;;;;36.79;23.76;98795.81;5074087;28;38681;-79
2022/11/08 11:02:52;;;;;;;4.13;2.50;;;;;;;35.29;25.27;98779.25;5089899;28;42718;-80
2022/11/08 11:05:26;;;;;;;2.70;2.25;;;;;;;35.68;24.08;98787.38;5090934;28;42634;-77
2022/11/08 11:08:14;;;;;;;2.90;2.42;;;;;;;36.22;23.38;98784.63;5091556;28;42280;-81
2022/11/08 11:10:43;;;;;;;4.93;2.65;;;;;;;36.16;23.43;98774.59;5090665;28;40047;-79
2022/11/08 11:13:13;;;;;;;3.13;2.08;;;;;;;36.62;23.33;98776.63;5091224;28;40180;-78
2022/11/08 11:15:47;;;;;;;2.75;2.38;;;;;;;37.79;21.24;98777.16;5073048;28;44610;-75
2022/11/08 11:18:33;;;;;;;2.72;2.38;;;;;;;39.20;20.78;98788.34;5088242;28;43195;-78
2022/11/08 11:21:04;;;;;;;2.25;1.83;;;;;;;40.55;19.07;98796.09;5089266;28;39728;-80
2022/11/08 11:23:35;;;;;;;2.33;1.85;;;;;;;41.85;17.14;98813.44;5073707;28;40571;-76
2022/11/08 11:26:04;;;;;;;1.63;1.52;;;;;;;42.72;16.73;98804.50;5073804;28;43745;-77
2022/11/08 11:28:32;;;;;;;2.15;1.65;;;;;;;43.47;15.77;98804.97;5074128;28;42347;-76
2022/11/08 11:31:00;;;;;;;2.00;1.70;;;;;;;43.91;15.45;98793.09;5090753;28;40914;-78
2022/11/08 11:33:29;;;;;;;1.50;1.40;;;;;;;43.95;16.00;98777.38;5090815;28;41627;-77
2022/11/08 11:36:01;;;;;;;2.15;1.60;;;;;;;42.75;16.31;98774.09;5090538;28;43502;-78
2022/11/08 11:38:38;;;;;;;2.83;1.73;;;;;;;41.77;16.81;98770.47;5090975;28;40540;-76
2022/11/08 11:41:13;;;;;;;1.45;1.33;;;;;;;42.77;16.42;98755.09;5073879;28;39024;-78
2022/11/08 11:43:46;;;;;;;3.40;1.60;;;;;;;41.17;17.39;98763.78;5090656;28;40804;-76
2022/11/08 11:46:21;;;;;;;1.92;1.70;;;;;;;40.21;18.21;98741.41;5073446;28;43037;-79
2022/11/08 11:48:55;;;;;;;3.10;1.70;;;;;;;39.12;19.16;98726.06;5073842;28;42564;-77
2022/11/08 11:51:27;;;;;;;3.03;1.40;;;;;;;39.85;18.11;98748.38;5090325;28;39126;-79
2022/11/08 11:53:57;;;;;;;4.03;1.23;;;;;;;40.88;18.17;98750.78;5089347;28;41428;-77
2022/11/08 11:56:49;;;;;;;1.83;1.63;;;;;;;40.93;17.62;98746.28;5073034;28;41964;-77
2022/11/08 11:59:57;;;;;;;3.55;1.50;;;;;;;42.58;16.98;98737.66;5069028;28;44030;-75
2022/11/08 12:03:14;;;;;;;2.22;1.20;;;;;;;43.63;16.24;98742.16;5006972;28;39868;-77
2022/11/08 12:06:03;;;;;;;1.52;1.42;;;;;;;44.04;15.78;98739.22;5015637;28;42017;-81
2022/11/08 12:08:46;;;;;;;2.63;1.40;;;;;;;43.91;15.95;98740.06;5087123;28;43212;-76
2022/11/08 12:11:32;;;;;;;2.67;1.40;;;;;;;43.49;15.84;98730.19;5074174;28;43246;-80
2022/11/08 12:14:19;;;;;;;3.40;1.30;;;;;;;44.10;15.88;98723.16;5088780;28;39928;-79
2022/11/08 12:16:56;;;;;;;1.70;1.38;;;;;;;44.15;14.50;98734.19;5087049;28;42740;-79
2022/11/08 12:19:41;;;;;;;1.33;1.23;;;;;;;41.44;16.54;98705.56;5088984;28;42736;-80
2022/11/08 12:22:25;;;;;;;1.60;1.00;;;;;;;39.90;17.67;98706.75;5086858;28;41951;-79
2022/11/08 12:25:00;;;;;;;1.67;1.40;;;;;;;39.35;18.15;98683.81;5090229;28;39036;-77
2022/11/08 12:27:40;;;;;;;1.75;1.30;;;;;;;39.59;17.99;98710.84;5068455;28;42477;-76
2022/11/08 12:30:12;;;;;;;1.27;1.10;;;;;;;38.98;18.21;98691.78;5070569;28;42469;-78
2022/11/08 12:32:59;;;;;;;1.45;1.02;;;;;;;39.66;18.11;98701.09;5089420;28;41555;-77
2022/11/08 12:35:35;;;;;;;2.08;1.00;;;;;;;40.28;16.84;98706.97;5090031;28;38955;-79
2022/11/08 12:38:14;;;;;;;1.33;1.10;;;;;;;40.28;16.54;98706.97;5087239;28;42549;-81
2022/11/08 12:40:52;;;;;;;2.67;1.10;;;;;;;40.30;17.08;98704.75;5072922;28;43878;-79
2022/11/08 12:43:43;;;;;;;1.63;1.10;;;;;;;40.16;17.04;98685.16;5073458;28;42646;-77
2022/11/08 12:46:12;;;;;;;1.80;1.42;;;;;;;40.06;17.31;98694.38;5073511;28;39553;-75
2022/11/08 12:49:15;;;;;;;2.50;1.20;;;;;;;38.78;17.81;98681.63;5073116;28;40781;-80
2022/11/08 12:52:01;;;;;;;2.35;1.13;;;;;;;36.11;19.27;98667.03;5081034;28;43469;-74
2022/11/08 12:54:33;;;;;;;3.22;1.42;;;;;;;34.55;20.70;98659.66;5073285;28;41928;-78
2022/11/08 12:57:04;;;;;;;2.30;1.20;;;;;;;33.66;21.39;98650.56;5087614;28;39924;-77
2022/11/08 12:59:39;;;;;;;1.30;1.10;;;;;;;32.99;22.06;98640.31;5072694;28;40621;-77
2022/11/08 13:02:16;;;;;;;1.80;1.33;;;;;;;31.91;22.96;98634.66;5089122;28;42814;-76
2022/11/08 13:04:54;;;;;;;0.90;0.90;;;;;;;30.79;24.16;98622.69;5089431;28;43226;-77
2022/11/08 13:07:34;;;;;;;1.63;1.30;;;;;;;29.78;25.17;98615.03;5073012;28;39967;-80
2022/11/08 13:10:07;;;;;;;1.80;0.90;;;;;;;28.72;26.37;98593.09;5089454;28;42580;-76
2022/11/08 13:12:44;;;;;;;1.80;1.30;;;;;;;28.16;27.09;98596.47;5091227;28;42480;-77
2022/11/08 13:15:19;;;;;;;1.80;1.17;;;;;;;27.51;28.24;98590.91;5092197;28;42070;-74
2022/11/08 13:18:24;;;;;;;1.57;1.30;;;;;;;27.02;29.23;98583.16;5076293;28;38522;-80
2022/11/08 13:20:52;;;;;;;1.77;1.03;;;;;;;26.46;29.67;98572.56;5093926;28;41882;-77
2022/11/08 13:23:29;;;;;;;1.60;1.10;;;;;;;26.22;30.90;98577.66;5092896;28;44547;-76
2022/11/08 13:26:18;;;;;;;1.50;1.30;;;;;;;25.89;32.62;98556.63;5089110;28;42027;-79
2022/11/08 13:28:45;;;;;;;1.53;1.30;;;;;;;25.50;32.60;98564.47;5090242;28;40089;-87
2022/11/08 13:31:25;;;;;;;2.00;1.70;;;;;;;25.18;32.83;98553.22;5075609;28;41767;-80
2022/11/08 13:34:07;;;;;;;2.77;1.27;;;;;;;24.78;33.55;98535.72;5075456;28;43678;-77
2022/11/08 13:36:48;;;;;;;1.90;1.40;;;;;;;24.48;34.29;98545.03;5089306;28;42877;-75
2022/11/08 13:39:35;;;;;;;2.37;1.23;;;;;;;24.29;34.75;98536.47;5076187;28;38485;-78
2022/11/08 13:42:24;;;;;;;2.03;1.17;;;;;;;24.17;35.52;98537.97;5092408;28;40676;-81
2022/11/08 13:45:13;;;;;;;2.80;1.40;;;;;;;24.11;35.44;98536.00;5093008;28;42583;-76
2022/11/08 13:47:57;;;;;;;3.47;1.10;;;;;;;24.00;36.20;98531.91;5055038;28;42648;-75
2022/11/08 13:50:48;;;;;;;2.07;0.93;;;;;;;23.89;35.94;98534.28;5075128;28;40785;-79
2022/11/08 13:53:44;;;;;;;1.87;1.13;;;;;;;23.81;36.63;98527.09;5075489;28;41304;-77
2022/11/08 13:56:43;;;;;;;1.43;1.10;;;;;;;24.09;36.37;98534.53;5091857;28;43445;-77
2022/11/08 13:59:47;;;;;;;1.90;1.00;;;;;;;24.29;36.46;98528.34;5075088;28;42469;-86
2022/11/08 14:02:32;;;;;;;1.80;0.90;;;;;;;23.88;37.01;98525.31;5092481;28;39686;-83
2022/11/08 14:05:23;;;;;;;2.30;1.00;;;;;;;23.44;37.92;98519.06;5092770;28;41593;-75
2022/11/08 14:08:00;;;;;;;1.53;1.03;;;;;;;23.02;37.90;98519.66;5092736;28;41698;-73
2022/11/08 14:10:38;;;;;;;0.73;0.70;;;;;;;22.67;39.24;98510.31;5074197;28;41829;-73
2022/11/08 14:13:15;;;;;;;1.47;1.27;;;;;;;22.35;39.57;98514.94;5090410;28;40641;-77
2022/11/08 14:15:49;;;;;;;1.60;0.97;;;;;;;22.04;39.96;98514.09;5091330;28;41078;-78
2022/11/08 14:18:24;;;;;;;1.30;1.10;;;;;;;21.77;40.36;98504.59;5089103;28;43138;-78
2022/11/08 14:20:55;;;;;;;1.37;1.20;;;;;;;21.48;40.69;98503.38;5091818;28;42599;-78
2022/11/08 14:23:29;;;;;;;2.77;1.37;;;;;;;21.20;40.78;98494.00;5093321;28;39883;-78
2022/11/08 14:25:58;;;;;;;1.77;1.20;;;;;;;20.97;41.30;98501.94;5091197;28;42201;-79
2022/11/08 14:28:28;;;;;;;1.77;1.37;;;;;;;20.77;41.65;98492.53;5074430;28;42858;-77
2022/11/08 14:30:57;;;;;;;2.50;1.20;;;;;;;20.59;42.46;98497.25;5090784;28;42173;-76
2022/11/08 14:33:27;;;;;;;2.03;1.30;;;;;;;20.43;42.34;98493.53;5091366;28;39977;-80
2022/11/08 14:36:02;;;;;;;2.40;1.50;;;;;;;20.30;42.50;98490.44;5091266;28;42990;-79
2022/11/08 14:38:32;;;;;;;1.83;1.30;;;;;;;20.15;42.81;98491.28;5089072;28;43669;-75
2022/11/08 14:41:02;;;;;;;1.60;1.50;;;;;;;20.00;43.30;98485.72;5089593;28;42859;-75
2022/11/08 14:43:31;;;;;;;3.20;1.70;;;;;;;19.76;44.40;98464.13;5074156;28;40616;-77
2022/11/08 14:46:10;;;;;;;2.67;1.67;;;;;;;19.69;44.26;98482.75;5074644;28;40925;-75
2022/11/08 14:48:37;;;;;;;2.57;1.97;;;;;;;19.33;44.56;98449.81;5088807;28;44118;-76
2022/11/08 14:51:06;;;;;;;2.27;1.80;;;;;;;19.35;44.61;98482.75;5074163;28;41310;-76
2022/11/08 14:53:45;;;;;;;2.83;1.87;;;;;;;19.09;45.16;98465.81;5091374;28;40473;-79
2022/11/08 14:56:18;;;;;;;2.03;1.73;;;;;;;19.04;45.11;98479.69;5091258;28;41519;-76
2022/11/08 14:58:47;;;;;;;2.10;1.80;;;;;;;18.91;45.38;98485.50;5090978;28;44003;-77
2022/11/08 15:01:16;;;;;;;2.97;1.87;;;;;;;18.67;45.67;98461.16;5070600;28;42309;-77
2022/11/08 15:03:47;;;;;;;3.43;1.80;;;;;;;18.66;46.57;98483.66;5070740;28;38764;-77
2022/11/08 15:06:17;;;;;;;4.70;2.20;;;;;;;18.54;46.55;98482.19;5084864;28;42346;-77
2022/11/08 15:08:51;;;;;;;3.37;2.10;;;;;;;18.41;46.97;98481.72;5091017;28;43765;-76
2022/11/08 15:11:32;;;;;;;3.03;2.47;;;;;;;18.29;47.08;98479.28;5090944;28;40756;-78
2022/11/08 15:14:16;;;;;;;3.03;1.90;;;;;;;18.14;46.98;98478.13;5073667;28;39187;-77
2022/11/08 15:20:34;;;;;;;8.07;2.33;;;;;;;17.75;48.45;98442.72;5057596;28;42817;-81
2022/11/08 15:23:41;;;;;;;4.50;2.67;;;;;;;17.51;48.23;98424.53;5072134;28;42809;-79
2022/11/08 15:26:21;;;;;;;4.13;3.03;;;;;;;17.61;48.40;98467.31;5071068;28;39942;-81
2022/11/08 15:29:02;;;;;;;4.53;3.30;;;;;;;17.49;48.82;98463.97;5073655;28;41778;-76
2022/11/08 15:31:32;;;;;;;4.67;3.40;;;;;;;17.27;48.62;98448.31;5055640;28;41809;-75
2022/11/08 15:34:01;;;;;;;4.50;3.20;;;;;;;17.26;49.68;98460.00;5090254;28;41876;-84
2022/11/08 15:36:33;;;;;;;3.23;2.53;;;;;;;17.17;49.22;98463.59;5089861;28;39677;-83
2022/11/08 15:39:04;;;;;;;4.70;3.00;;;;;;;17.08;49.64;98462.59;5088498;28;41664;-81
2022/11/08 15:41:37;;;;;;;5.07;2.40;;;;;;;17.00;49.94;98467.00;5070072;28;44221;-84
2022/11/08 15:44:15;;;;;;;3.10;2.77;;;;;;;16.91;50.05;98463.38;5088794;28;41987;-80
2022/11/08 15:46:43;;;;;;;2.93;2.57;;;;;;;16.77;50.08;98456.66;5088565;28;39832;-80
2022/11/08 15:49:19;;;;;;;5.67;2.33;;;;;;;16.72;50.57;98466.94;5091133;28;41701;-82
2022/11/08 15:51:48;;;;;;;3.10;2.03;;;;;;;16.49;50.38;98452.16;5092922;28;42458;-77
2022/11/08 15:54:18;;;;;;;4.07;2.37;;;;;;;16.45;50.57;98464.13;5092521;28;42097;-76
2022/11/08 15:56:55;;;;;;;3.70;2.20;;;;;;;16.11;51.56;98435.19;5091541;28;40243;-79
2022/11/08 15:59:28;;;;;;;2.90;2.40;;;;;;;16.15;52.81;98457.97;5077473;28;40622;-78
2022/11/08 16:01:58;;;;;;;4.13;2.23;;;;;;;16.02;53.43;98457.41;5097294;28;43570;-84
2022/11/08 16:04:27;;;;;;;3.47;2.50;;;;;;;15.90;52.96;98449.66;5079836;28;43925;-80
2022/11/08 16:06:55;;;;;;;4.33;2.50;;;;;;;15.77;54.16;98450.78;5098098;28;39808;-79
2022/11/08 16:09:23;;;;;;;3.83;2.30;;;;;;;15.67;55.68;98449.06;5096535;28;40924;-74
2022/11/08 16:11:51;;;;;;;4.67;3.00;;;;;;;15.57;55.10;98448.22;5093400;28;42505;-80
2022/11/08 16:14:22;;;;;;;5.17;3.00;;;;;;;15.50;56.17;98447.00;5092112;28;42373;-83
2022/11/08 16:16:50;;;;;;;4.27;3.00;;;;;;;15.36;55.72;98435.75;5091130;28;40577;-78
2022/11/08 16:19:22;;;;;;;3.00;2.57;;;;;;;15.42;56.80;98453.88;5090817;28;42281;-80
2022/11/08 16:21:53;;;;;;;6.30;3.03;;;;;;;15.27;56.94;98436.56;5074542;28;42111;-77
2022/11/08 16:24:20;;;;;;;3.83;2.47;;;;;;;15.31;56.58;98459.34;5090385;28;43006;-80
2022/11/08 16:26:49;;;;;;;5.17;2.77;;;;;;;15.21;56.49;98450.44;5092086;28;40620;-78
2022/11/08 16:29:20;;;;;;;4.20;2.33;;;;;;;15.17;56.31;98454.38;5091624;28;41461;-80
2022/11/08 16:31:50;;;;;;;3.03;2.30;;;;;;;15.08;56.38;98458.66;5073633;28;44626;-79
2022/11/08 16:34:18;;;;;;;3.73;2.47;;;;;;;15.03;56.66;98450.22;5090759;28;41337;-80
2022/11/08 16:36:47;;;;;;;5.10;3.27;;;;;;;15.03;57.81;98444.06;5092166;28;40888;-78
2022/11/08 16:39:17;;;;;;;3.77;2.83;;;;;;;14.94;57.78;98434.19;5073313;28;40925;-79
2022/11/08 16:41:45;;;;;;;3.67;2.47;;;;;;;15.02;57.38;98448.53;5090695;28;41675;-77
2022/11/08 16:44:14;;;;;;;4.37;2.60;;;;;;;15.05;58.34;98450.09;5090746;28;43507;-78
2022/11/08 16:46:41;;;;;;;2.80;2.50;;;;;;;15.06;58.45;98446.47;5075783;28;38801;-78
2022/11/08 16:49:19;;;;;;;4.43;2.77;;;;;;;14.92;58.03;98431.66;5076892;28;40477;-84
2022/11/08 16:51:48;;;;;;;3.90;2.97;;;;;;;15.05;57.97;98452.78;5088140;28;41852;-79
2022/11/08 16:54:18;;;;;;;4.73;2.80;;;;;;;15.01;58.06;98459.34;5093040;28;41274;-80
2022/11/08 16:56:46;;;;;;;4.20;2.73;;;;;;;14.98;57.83;98462.25;5093426;28;41107;-81
2022/11/08 16:59:15;;;;;;;6.93;3.50;;;;;;;14.83;59.08;98447.63;5076854;28;40802;-82
2022/11/08 17:01:43;;;;;;;4.53;3.43;;;;;;;14.86;58.87;98458.00;5094923;28;43646;-83
2022/11/08 17:04:11;;;;;;;6.23;4.20;;;;;;;14.81;59.88;98449.56;5095099;28;42206;-79
2022/11/08 17:06:38;;;;;;;4.43;3.30;;;;;;;14.70;59.41;98456.66;5094889;28;39854;-80
2022/11/08 17:09:06;;;;;;;5.00;3.40;;;;;;;14.53;59.59;98425.28;5093693;28;43090;-85
2022/11/08 17:11:33;;;;;;;4.87;3.30;;;;;;;14.65;59.29;98458.03;5072964;28;43548;-83
2022/11/08 17:14:01;;;;;;;4.03;2.70;;;;;;;14.64;60.24;98454.50;5073025;28;41216;-77
2022/11/08 17:16:33;;;;;;;6.20;3.47;;;;;;;14.25;60.57;98408.09;5081446;28;39719;-78
2022/11/08 17:19:03;;;;;;;4.10;2.83;;;;;;;14.42;60.73;98430.69;5093214;28;40595;-77
2022/11/08 17:21:30;;;;;;;4.20;3.13;;;;;;;14.35;61.44;98426.78;5093062;28;43576;-78
2022/11/08 17:23:58;;;;;;;3.50;2.90;;;;;;;14.44;60.77;98446.53;5092682;28;42018;-82
2022/11/08 17:26:25;;;;;;;4.07;2.60;;;;;;;14.43;60.87;98461.69;5094319;28;39896;-84
2022/11/08 17:28:55;;;;;;;3.80;2.67;;;;;;;14.39;61.79;98465.53;5093704;28;41819;-85
2022/11/08 17:31:23;;;;;;;5.70;2.93;;;;;;;14.34;61.18;98467.75;5110868;28;41536;-88
2022/11/08 17:33:53;;;;;;;6.87;3.43;;;;;;;14.26;61.89;98464.88;5093233;28;40860;-83
2022/11/08 17:36:21;;;;;;;5.57;3.10;;;;;;;14.18;61.75;98462.84;5090559;28;39895;-84
2022/11/08 17:38:48;;;;;;;4.27;2.80;;;;;;;14.05;62.79;98453.34;5076125;28;42135;-85
2022/11/08 17:41:16;;;;;;;6.40;3.60;;;;;;;14.05;62.65;98469.31;5092944;28;43008;-82
2022/11/08 17:43:44;;;;;;;3.80;3.40;;;;;;;13.84;62.16;98448.00;5093284;28;42148;-80
2022/11/08 17:46:13;;;;;;;4.83;3.50;;;;;;;13.78;63.16;98446.66;5075964;28;40079;-80
2022/11/08 17:48:40;;;;;;;5.87;3.40;;;;;;;13.82;62.86;98474.72;5092571;28;41668;-77
2022/11/08 17:51:10;;;;;;;4.00;2.97;;;;;;;13.77;62.87;98478.72;5091762;28;41958;-78
2022/11/08 17:53:38;;;;;;;6.17;3.57;;;;;;;13.72;62.58;98476.47;5074897;28;43157;-77
2022/11/08 17:56:10;;;;;;;5.93;3.70;;;;;;;13.68;63.27;98467.03;5091480;28;41522;-77
2022/11/08 17:58:39;;;;;;;4.27;3.27;;;;;;;13.63;62.83;98471.84;5088731;28;41732;-77
2022/11/08 18:01:07;;;;;;;4.07;3.00;;;;;;;13.63;62.75;98479.84;5091965;28;43153;-78
2022/11/08 18:03:35;;;;;;;5.33;3.30;;;;;;;13.56;63.92;98460.03;5093355;28;41913;-77
2022/11/08 18:06:05;;;;;;;4.47;3.30;;;;;;;13.60;63.58;98472.09;5075451;28;38556;-77
2022/11/08 18:08:34;;;;;;;3.43;2.90;;;;;;;13.62;63.89;98475.47;5093456;28;41624;-77
2022/11/08 18:11:06;;;;;;;4.17;3.13;;;;;;;13.59;64.64;98470.44;5092023;28;42843;-77
2022/11/08 18:13:34;;;;;;;3.27;2.97;;;;;;;13.56;64.26;98473.34;5092324;28;41160;-77
2022/11/08 18:16:09;;;;;;;5.00;3.00;;;;;;;13.47;64.60;98463.44;5092027;28;40040;-77
2022/11/08 18:18:36;;;;;;;4.27;3.37;;;;;;;13.29;64.19;98442.66;5090160;28;42849;-77
2022/11/08 18:21:04;;;;;;;5.07;3.57;;;;;;;13.36;64.90;98463.44;5091783;28;41676;-76
2022/11/08 18:23:32;;;;;;;4.27;3.23;;;;;;;13.34;64.89;98478.69;5091886;28;40945;-77
2022/11/08 18:26:01;;;;;;;4.73;2.60;;;;;;;13.30;64.72;98470.09;5092111;28;40502;-77
2022/11/08 18:28:28;;;;;;;3.83;2.37;;;;;;;13.29;64.62;98468.41;5108921;28;41218;-77
2022/11/08 18:31:02;;;;;;;3.83;2.57;;;;;;;13.26;65.01;98468.66;5091343;28;42161;-77
2022/11/08 18:33:30;;;;;;;4.07;2.80;;;;;;;13.21;64.39;98471.69;5088815;28;42117;-76
2022/11/08 18:36:03;;;;;;;3.37;2.50;;;;;;;13.22;64.99;98470.72;5093034;28;41552;-77
2022/11/08 18:38:39;;;;;;;3.40;2.60;;;;;;;13.13;64.37;98452.78;5074519;28;43265;-77
2022/11/08 18:41:08;;;;;;;4.37;3.30;;;;;;;13.22;64.69;98476.03;5091245;28;43024;-76
2022/11/08 18:43:37;;;;;;;5.40;2.73;;;;;;;13.19;64.99;98478.09;5091509;28;42900;-76
2022/11/08 18:46:06;;;;;;;2.87;2.60;;;;;;;13.20;65.03;98467.34;5092850;28;39789;-76
2022/11/08 18:48:36;;;;;;;3.20;2.87;;;;;;;13.18;65.29;98463.94;5091331;28;42643;-76
2022/11/08 18:51:04;;;;;;;6.40;3.50;;;;;;;13.12;65.09;98460.88;5108247;28;41690;-76
2022/11/08 18:53:32;;;;;;;3.53;3.00;;;;;;;13.09;65.72;98462.00;5071956;28;42571;-77
2022/11/08 18:55:59;;;;;;;5.73;3.80;;;;;;;13.06;65.42;98467.53;5090797;28;40131;-76
2022/11/08 18:58:28;;;;;;;3.90;2.63;;;;;;;13.02;65.24;98459.91;5073729;28;40897;-77
2022/11/08 19:00:58;;;;;;;3.83;3.00;;;;;;;12.99;65.42;98455.69;5091224;28;42768;-78
2022/11/08 19:03:26;;;;;;;3.50;2.80;;;;;;;12.88;65.80;98453.03;5087688;28;42746;-79
2022/11/08 19:05:54;;;;;;;4.13;2.77;;;;;;;12.90;65.34;98454.59;5074987;28;39406;-76
2022/11/08 19:08:25;;;;;;;3.87;2.80;;;;;;;12.90;65.41;98456.41;5091283;28;41945;-79
2022/11/08 19:10:55;;;;;;;4.67;3.67;;;;;;;12.87;65.09;98456.66;5089470;28;43458;-79
2022/11/08 19:13:25;;;;;;;4.43;3.13;;;;;;;12.83;65.43;98450.75;5090331;28;40854;-77
2022/11/08 19:16:08;;;;;;;4.77;3.77;;;;;;;12.91;65.48;98471.41;5088007;28;40018;-77
2022/11/08 19:18:37;;;;;;;4.13;3.50;;;;;;;12.82;65.82;98458.84;5108022;28;41623;-78
2022/11/08 19:21:07;;;;;;;4.73;3.60;;;;;;;12.81;66.08;98459.81;5090102;28;42795;-78
2022/11/08 19:23:37;;;;;;;5.40;2.90;;;;;;;12.79;66.51;98456.41;5088118;28;42121;-78
2022/11/08 19:28:49;;;;;;;5.97;3.10;;;;;;;12.88;66.83;98475.13;5068523;28;40763;-78
2022/11/08 19:31:20;;;;;;;3.57;2.90;;;;;;;12.92;67.07;98467.78;5068863;28;43002;-79
2022/11/08 19:33:50;;;;;;;3.50;3.00;;;;;;;12.93;66.48;98466.81;5088124;28;42816;-78
2022/11/08 19:36:19;;;;;;;4.83;2.80;;;;;;;12.88;66.11;98453.88;5086883;28;39040;-78
2022/11/08 19:38:47;;;;;;;4.70;2.60;;;;;;;12.92;65.77;98455.34;5086283;28;41784;-78
2022/11/08 19:41:17;;;;;;;3.37;3.00;;;;;;;12.93;66.29;98464.16;5090561;28;44753;-78
2022/11/08 19:43:46;;;;;;;3.83;3.03;;;;;;;12.79;66.31;98453.75;5073217;28;41593;-78
2022/11/08 19:46:15;;;;;;;3.10;2.70;;;;;;;12.79;66.36;98453.75;5071244;28;39204;-78
2022/11/08 19:48:46;;;;;;;4.43;2.97;;;;;;;12.80;66.20;98469.59;5088933;28;41090;-78
2022/11/08 19:51:16;;;;;;;3.97;3.43;;;;;;;12.75;66.36;98465.56;5073065;28;44090;-78
2022/11/08 19:53:44;;;;;;;4.47;3.23;;;;;;;12.75;66.79;98470.88;5090888;28;42265;-78
2022/11/08 19:56:15;;;;;;;4.53;3.23;;;;;;;12.61;66.57;98455.19;5089916;28;40097;-78
2022/11/08 19:58:43;;;;;;;3.47;2.90;;;;;;;12.70;66.40;98491.66;5088439;28;41902;-78
2022/11/08 20:01:13;;;;;;;4.27;3.30;;;;;;;12.37;66.16;98453.44;5089469;28;43838;-78
2022/11/08 20:03:41;;;;;;;3.07;2.70;;;;;;;12.65;66.53;98499.97;5073277;28;40978;-78
2022/11/08 20:06:11;;;;;;;4.03;3.17;;;;;;;12.64;66.09;98492.97;5091568;28;40069;-78
2022/11/08 20:08:39;;;;;;;3.27;2.80;;;;;;;12.63;66.60;98487.78;5090007;28;41649;-79
2022/11/08 20:11:11;;;;;;;3.73;3.00;;;;;;;12.61;66.26;98487.88;5089542;28;43600;-78
2022/11/08 20:13:38;;;;;;;4.20;3.00;;;;;;;12.64;66.25;98489.47;5073198;28;42651;-81
2022/11/08 20:16:11;;;;;;;3.93;3.20;;;;;;;12.62;66.97;98483.41;5089986;28;39922;-79
2022/11/08 20:18:39;;;;;;;3.90;3.27;;;;;;;12.61;66.93;98489.72;5087284;28;42446;-78
2022/11/08 20:21:10;;;;;;;4.93;3.30;;;;;;;12.61;66.70;98487.06;5072042;28;43858;-80
2022/11/08 20:23:38;;;;;;;3.90;3.10;;;;;;;12.62;66.82;98488.75;5086916;28;42255;-79
2022/11/08 20:26:08;;;;;;;4.23;3.33;;;;;;;12.57;67.46;98476.69;5089612;28;39059;-78
2022/11/08 20:28:36;;;;;;;4.33;3.27;;;;;;;12.50;67.12;98466.63;5089139;28;41775;-78
2022/11/08 20:31:05;;;;;;;3.50;3.10;;;;;;;12.65;66.99;98483.19;5090772;28;43721;-79
2022/11/08 20:33:34;;;;;;;3.50;3.20;;;;;;;12.70;67.05;98491.66;5089268;28;43299;-78